sensor_id;sensor_type;location;lat;lon;timestamp;P1;P4;P2;P0;N10;N4;N25;N1;N05;TS
72225;SPS30;60130;52.250;5.048;2023-11-22T00:00:00;4.81;;4.67;;;;;;;
72225;SPS30;60130;52.250;5.048;2023-11-22T00:05:00;5.13;;5.07;;;;;;;
72225;SPS30;60130;52.250;5.048;2023-11-22T00:10:00;5.32;;5.17;;;;;;;
72225;SPS30;60130;52.250;5.048;2023-11-22T00:15:00;4.76;;4.63;;;;;;;
72225;SPS30;60130;52.250;5.048;2023-11-22T00:20:00;5.01;;4.95;;;;;;;
72225;SPS30;60130;52.250;5.048;2023-11-22T00:25:00;4.79;;4.67;;;;;;;
72225;SPS30;60130;52.250;5.048;2023-11-22T00:30:00;5.19;;5.05;;;;;;;
72225;SPS30;60130;52.250;5.048;2023-11-22T00:35:00;5.64;;5.43;;;;;;;
72225;SPS30;60130;52.250;5.048;2023-11-22T00:40:00;5.99;;5.65;;;;;;;
72225;SPS30;60130;52.250;5.048;2023-11-22T00:45:00;5.12;;4.90;;;;;;;
72225;SPS30;60130;52.250;5.048;2023-11-22T00:50:00;5.85;;5.72;;;;;;;
72225;SPS30;60130;52.250;5.048;2023-11-22T00:55:00;5.74;;5.51;;;;;;;
72225;SPS30;60130;52.250;5.048;2023-11-22T01:00:00;5.47;;5.24;;;;;;;
72225;SPS30;60130;52.250;5.048;2023-11-22T01:05:00;5.35;;5.18;;;;;;;
72225;SPS30;60130;52.250;5.048;2023-11-22T01:10:00;5.53;;5.38;;;;;;;
72225;SPS30;60130;52.250;5.048;2023-11-22T01:15:00;6.67;;6.47;;;;;;;
72225;SPS30;60130;52.250;5.048;2023-11-22T01:20:00;6.09;;5.95;;;;;;;
72225;SPS30;60130;52.250;5.048;2023-11-22T01:25:00;6.46;;6.15;;;;;;;
72225;SPS30;60130;52.250;5.048;2023-11-22T01:30:00;6.02;;5.78;;;;;;;
72225;SPS30;60130;52.250;5.048;2023-11-22T01:35:00;6.16;;5.97;;;;;;;
72225;SPS30;60130;52.250;5.048;2023-11-22T01:40:00;5.96;;5.71;;;;;;;
72225;SPS30;60130;52.250;5.048;2023-11-22T01:45:00;5.59;;5.37;;;;;;;
72225;SPS30;60130;52.250;5.048;2023-11-22T01:50:00;5.33;;4.84;;;;;;;
72225;SPS30;60130;52.250;5.048;2023-11-22T01:55:00;6.90;;6.52;;;;;;;
72225;SPS30;60130;52.250;5.048;2023-11-22T02:00:00;6.02;;5.74;;;;;;;
72225;SPS30;60130;52.250;5.048;2023-11-22T02:05:01;6.04;;5.87;;;;;;;
72225;SPS30;60130;52.250;5.048;2023-11-22T02:10:00;6.37;;6.02;;;;;;;
72225;SPS30;60130;52.250;5.048;2023-11-22T02:15:00;6.86;;6.43;;;;;;;
72225;SPS30;60130;52.250;5.048;2023-11-22T02:20:00;6.76;;6.32;;;;;;;
72225;SPS30;60130;52.250;5.048;2023-11-22T02:25:00;5.95;;5.67;;;;;;;
72225;SPS30;60130;52.250;5.048;2023-11-22T02:30:01;6.26;;6.04;;;;;;;
72225;SPS30;60130;52.250;5.048;2023-11-22T02:35:00;4.83;;4.61;;;;;;;
72225;SPS30;60130;52.250;5.048;2023-11-22T02:40:02;5.29;;4.94;;;;;;;
72225;SPS30;60130;52.250;5.048;2023-11-22T02:45:00;7.37;;6.90;;;;;;;
72225;SPS30;60130;52.250;5.048;2023-11-22T02:50:00;6.02;;5.76;;;;;;;
72225;SPS30;60130;52.250;5.048;2023-11-22T02:55:04;5.17;;4.98;;;;;;;
72225;SPS30;60130;52.250;5.048;2023-11-22T03:00:00;5.10;;4.72;;;;;;;
72225;SPS30;60130;52.250;5.048;2023-11-22T03:05:00;4.82;;4.60;;;;;;;
72225;SPS30;60130;52.250;5.048;2023-11-22T03:10:00;4.03;;3.84;;;;;;;
72225;SPS30;60130;52.250;5.048;2023-11-22T03:15:00;4.95;;4.75;;;;;;;
72225;SPS30;60130;52.250;5.048;2023-11-22T03:20:00;5.57;;5.29;;;;;;;
72225;SPS30;60130;52.250;5.048;2023-11-22T03:25:00;5.73;;5.53;;;;;;;
72225;SPS30;60130;52.250;5.048;2023-11-22T03:30:00;7.62;;7.39;;;;;;;
72225;SPS30;60130;52.250;5.048;2023-11-22T03:35:00;6.28;;5.82;;;;;;;
72225;SPS30;60130;52.250;5.048;2023-11-22T03:40:00;6.76;;6.36;;;;;;;
72225;SPS30;60130;52.250;5.048;2023-11-22T03:45:00;6.77;;6.28;;;;;;;
72225;SPS30;60130;52.250;5.048;2023-11-22T03:50:00;7.00;;6.60;;;;;;;
72225;SPS30;60130;52.250;5.048;2023-11-22T03:55:00;6.74;;6.28;;;;;;;
72225;SPS30;60130;52.250;5.048;2023-11-22T04:00:00;8.22;;7.47;;;;;;;
72225;SPS30;60130;52.250;5.048;2023-11-22T04:05:00;8.94;;8.20;;;;;;;
72225;SPS30;60130;52.250;5.048;2023-11-22T04:10:00;8.46;;7.72;;;;;;;
72225;SPS30;60130;52.250;5.048;2023-11-22T04:15:00;7.42;;6.81;;;;;;;
72225;SPS30;60130;52.250;5.048;2023-11-22T04:20:00;8.27;;7.55;;;;;;;
72225;SPS30;60130;52.250;5.048;2023-11-22T04:25:00;7.35;;6.74;;;;;;;
72225;SPS30;60130;52.250;5.048;2023-11-22T04:30:00;8.66;;8.23;;;;;;;
72225;SPS30;60130;52.250;5.048;2023-11-22T04:35:00;7.34;;6.85;;;;;;;
72225;SPS30;60130;52.250;5.048;2023-11-22T04:40:00;7.46;;6.86;;;;;;;
72225;SPS30;60130;52.250;5.048;2023-11-22T04:45:00;9.20;;8.06;;;;;;;
72225;SPS30;60130;52.250;5.048;2023-11-22T04:50:00;8.06;;7.54;;;;;;;
72225;SPS30;60130;52.250;5.048;2023-11-22T04:55:00;7.74;;6.96;;;;;;;
72225;SPS30;60130;52.250;5.048;2023-11-22T05:00:00;9.21;;8.43;;;;;;;
72225;SPS30;60130;52.250;5.048;2023-11-22T05:05:00;8.27;;7.88;;;;;;;
72225;SPS30;60130;52.250;5.048;2023-11-22T05:10:00;7.15;;6.61;;;;;;;
72225;SPS30;60130;52.250;5.048;2023-11-22T05:15:00;8.35;;7.72;;;;;;;
72225;SPS30;60130;52.250;5.048;2023-11-22T05:20:00;7.91;;7.48;;;;;;;
72225;SPS30;60130;52.250;5.048;2023-11-22T05:25:00;8.67;;7.97;;;;;;;
72225;SPS30;60130;52.250;5.048;2023-11-22T05:30:00;8.48;;7.79;;;;;;;
72225;SPS30;60130;52.250;5.048;2023-11-22T05:35:00;8.64;;7.92;;;;;;;
72225;SPS30;60130;52.250;5.048;2023-11-22T05:40:00;8.85;;7.97;;;;;;;
72225;SPS30;60130;52.250;5.048;2023-11-22T05:45:00;7.47;;7.14;;;;;;;
72225;SPS30;60130;52.250;5.048;2023-11-22T05:50:00;8.77;;8.11;;;;;;;
72225;SPS30;60130;52.250;5.048;2023-11-22T05:55:00;8.41;;7.78;;;;;;;
72225;SPS30;60130;52.250;5.048;2023-11-22T06:00:00;8.06;;7.50;;;;;;;
72225;SPS30;60130;52.250;5.048;2023-11-22T06:05:00;9.08;;8.32;;;;;;;
72225;SPS30;60130;52.250;5.048;2023-11-22T06:10:00;8.37;;7.64;;;;;;;
72225;SPS30;60130;52.250;5.048;2023-11-22T06:15:00;9.58;;8.82;;;;;;;
72225;SPS30;60130;52.250;5.048;2023-11-22T06:20:00;9.02;;8.20;;;;;;;
72225;SPS30;60130;52.250;5.048;2023-11-22T06:25:00;8.58;;8.01;;;;;;;
72225;SPS30;60130;52.250;5.048;2023-11-22T06:30:00;8.28;;7.53;;;;;;;
72225;SPS30;60130;52.250;5.048;2023-11-22T06:35:00;9.37;;8.50;;;;;;;
72225;SPS30;60130;52.250;5.048;2023-11-22T06:40:00;8.26;;7.79;;;;;;;
72225;SPS30;60130;52.250;5.048;2023-11-22T06:45:00;9.47;;8.69;;;;;;;
72225;SPS30;60130;52.250;5.048;2023-11-22T06:50:00;9.54;;8.79;;;;;;;
72225;SPS30;60130;52.250;5.048;2023-11-22T06:55:00;7.87;;7.28;;;;;;;
72225;SPS30;60130;52.250;5.048;2023-11-22T07:00:00;10.34;;9.44;;;;;;;
72225;SPS30;60130;52.250;5.048;2023-11-22T07:05:00;8.94;;8.26;;;;;;;
72225;SPS30;60130;52.250;5.048;2023-11-22T07:10:04;9.95;;9.37;;;;;;;
72225;SPS30;60130;52.250;5.048;2023-11-22T07:15:00;10.18;;9.39;;;;;;;
72225;SPS30;60130;52.250;5.048;2023-11-22T07:20:00;8.89;;8.35;;;;;;;
72225;SPS30;60130;52.250;5.048;2023-11-22T07:25:00;9.43;;8.38;;;;;;;
72225;SPS30;60130;52.250;5.048;2023-11-22T07:30:00;9.05;;8.46;;;;;;;
72225;SPS30;60130;52.250;5.048;2023-11-22T07:35:00;8.58;;7.95;;;;;;;
72225;SPS30;60130;52.250;5.048;2023-11-22T07:40:00;9.66;;8.86;;;;;;;
72225;SPS30;60130;52.250;5.048;2023-11-22T07:45:00;8.91;;8.05;;;;;;;
72225;SPS30;60130;52.250;5.048;2023-11-22T07:50:00;9.32;;8.23;;;;;;;
72225;SPS30;60130;52.250;5.048;2023-11-22T07:55:00;8.19;;7.56;;;;;;;
72225;SPS30;60130;52.250;5.048;2023-11-22T08:00:00;8.73;;7.93;;;;;;;
72225;SPS30;60130;52.250;5.048;2023-11-22T08:05:00;8.30;;7.77;;;;;;;
72225;SPS30;60130;52.250;5.048;2023-11-22T08:10:00;9.31;;8.39;;;;;;;
72225;SPS30;60130;52.250;5.048;2023-11-22T08:15:00;9.70;;8.74;;;;;;;
72225;SPS30;60130;52.250;5.048;2023-11-22T08:20:00;8.41;;8.03;;;;;;;
72225;SPS30;60130;52.250;5.048;2023-11-22T08:25:00;8.60;;7.97;;;;;;;
72225;SPS30;60130;52.250;5.048;2023-11-22T08:30:00;8.91;;8.28;;;;;;;
72225;SPS30;60130;52.250;5.048;2023-11-22T08:35:00;9.99;;9.08;;;;;;;
72225;SPS30;60130;52.250;5.048;2023-11-22T08:40:00;10.49;;9.61;;;;;;;
72225;SPS30;60130;52.250;5.048;2023-11-22T08:45:00;8.77;;8.33;;;;;;;
72225;SPS30;60130;52.250;5.048;2023-11-22T08:50:00;9.81;;9.28;;;;;;;
72225;SPS30;60130;52.250;5.048;2023-11-22T08:55:00;9.43;;8.69;;;;;;;
72225;SPS30;60130;52.250;5.048;2023-11-22T09:00:00;8.74;;7.99;;;;;;;
72225;SPS30;60130;52.250;5.048;2023-11-22T09:05:04;8.67;;8.06;;;;;;;
72225;SPS30;60130;52.250;5.048;2023-11-22T09:10:00;10.04;;9.02;;;;;;;
72225;SPS30;60130;52.250;5.048;2023-11-22T09:15:00;9.28;;8.52;;;;;;;
72225;SPS30;60130;52.250;5.048;2023-11-22T09:20:00;10.85;;10.03;;;;;;;
72225;SPS30;60130;52.250;5.048;2023-11-22T09:25:00;10.58;;9.55;;;;;;;
72225;SPS30;60130;52.250;5.048;2023-11-22T09:30:00;10.77;;10.17;;;;;;;
72225;SPS30;60130;52.250;5.048;2023-11-22T09:35:00;9.35;;8.46;;;;;;;
72225;SPS30;60130;52.250;5.048;2023-11-22T09:40:00;9.84;;9.02;;;;;;;
72225;SPS30;60130;52.250;5.048;2023-11-22T09:45:00;10.43;;9.73;;;;;;;
72225;SPS30;60130;52.250;5.048;2023-11-22T09:50:00;9.63;;8.91;;;;;;;
72225;SPS30;60130;52.250;5.048;2023-11-22T09:55:05;10.52;;9.58;;;;;;;
72225;SPS30;60130;52.250;5.048;2023-11-22T10:00:00;10.74;;9.78;;;;;;;
72225;SPS30;60130;52.250;5.048;2023-11-22T10:05:00;10.01;;9.08;;;;;;;
72225;SPS30;60130;52.250;5.048;2023-11-22T10:10:00;11.37;;10.31;;;;;;;
72225;SPS30;60130;52.250;5.048;2023-11-22T10:15:10;9.46;;8.87;;;;;;;
72225;SPS30;60130;52.250;5.048;2023-11-22T10:20:00;10.20;;9.52;;;;;;;
72225;SPS30;60130;52.250;5.048;2023-11-22T10:25:00;11.10;;10.25;;;;;;;
72225;SPS30;60130;52.250;5.048;2023-11-22T10:30:00;10.02;;9.39;;;;;;;
72225;SPS30;60130;52.250;5.048;2023-11-22T10:35:00;9.67;;8.89;;;;;;;
72225;SPS30;60130;52.250;5.048;2023-11-22T10:40:00;9.89;;9.46;;;;;;;
72225;SPS30;60130;52.250;5.048;2023-11-22T10:45:00;9.24;;8.67;;;;;;;
72225;SPS30;60130;52.250;5.048;2023-11-22T10:50:00;11.65;;10.53;;;;;;;
72225;SPS30;60130;52.250;5.048;2023-11-22T10:55:01;10.62;;9.93;;;;;;;
72225;SPS30;60130;52.250;5.048;2023-11-22T11:00:02;11.69;;10.60;;;;;;;
72225;SPS30;60130;52.250;5.048;2023-11-22T11:05:02;9.64;;8.83;;;;;;;
72225;SPS30;60130;52.250;5.048;2023-11-22T11:10:00;9.72;;9.13;;;;;;;
72225;SPS30;60130;52.250;5.048;2023-11-22T11:15:00;9.10;;8.65;;;;;;;
72225;SPS30;60130;52.250;5.048;2023-11-22T11:20:00;10.96;;10.24;;;;;;;
72225;SPS30;60130;52.250;5.048;2023-11-22T11:25:01;10.18;;9.65;;;;;;;
72225;SPS30;60130;52.250;5.048;2023-11-22T11:30:00;10.99;;9.95;;;;;;;
72225;SPS30;60130;52.250;5.048;2023-11-22T11:35:00;11.49;;10.67;;;;;;;
72225;SPS30;60130;52.250;5.048;2023-11-22T11:40:00;9.82;;8.96;;;;;;;
72225;SPS30;60130;52.250;5.048;2023-11-22T11:45:04;10.35;;9.90;;;;;;;
72225;SPS30;60130;52.250;5.048;2023-11-22T11:50:00;9.81;;9.49;;;;;;;
72225;SPS30;60130;52.250;5.048;2023-11-22T11:55:00;9.41;;8.78;;;;;;;
72225;SPS30;60130;52.250;5.048;2023-11-22T12:00:00;9.63;;9.04;;;;;;;
72225;SPS30;60130;52.250;5.048;2023-11-22T12:05:00;10.19;;9.70;;;;;;;
72225;SPS30;60130;52.250;5.048;2023-11-22T12:10:00;9.06;;8.59;;;;;;;
72225;SPS30;60130;52.250;5.048;2023-11-22T12:15:00;10.79;;9.93;;;;;;;
72225;SPS30;60130;52.250;5.048;2023-11-22T12:25:00;9.49;;9.21;;;;;;;
72225;SPS30;60130;52.250;5.048;2023-11-22T12:30:00;9.39;;8.96;;;;;;;
72225;SPS30;60130;52.250;5.048;2023-11-22T12:35:00;10.66;;10.16;;;;;;;
72225;SPS30;60130;52.250;5.048;2023-11-22T12:40:06;10.92;;10.04;;;;;;;
72225;SPS30;60130;52.250;5.048;2023-11-22T12:45:00;9.77;;9.32;;;;;;;
72225;SPS30;60130;52.250;5.048;2023-11-22T12:50:00;10.55;;9.87;;;;;;;
72225;SPS30;60130;52.250;5.048;2023-11-22T12:55:00;9.05;;8.64;;;;;;;
72225;SPS30;60130;52.250;5.048;2023-11-22T13:00:00;10.37;;9.79;;;;;;;
72225;SPS30;60130;52.250;5.048;2023-11-22T13:05:00;10.01;;9.34;;;;;;;
72225;SPS30;60130;52.250;5.048;2023-11-22T13:10:00;9.82;;9.15;;;;;;;
72225;SPS30;60130;52.250;5.048;2023-11-22T13:15:00;10.36;;9.68;;;;;;;
72225;SPS30;60130;52.250;5.048;2023-11-22T13:20:00;10.60;;9.97;;;;;;;
72225;SPS30;60130;52.250;5.048;2023-11-22T13:25:00;10.87;;10.04;;;;;;;
72225;SPS30;60130;52.250;5.048;2023-11-22T13:30:00;10.47;;9.84;;;;;;;
72225;SPS30;60130;52.250;5.048;2023-11-22T13:35:00;9.55;;8.95;;;;;;;
72225;SPS30;60130;52.250;5.048;2023-11-22T13:40:00;9.70;;9.21;;;;;;;
72225;SPS30;60130;52.250;5.048;2023-11-22T13:45:00;10.24;;9.71;;;;;;;
72225;SPS30;60130;52.250;5.048;2023-11-22T13:50:00;10.67;;10.03;;;;;;;
72225;SPS30;60130;52.250;5.048;2023-11-22T13:55:00;11.09;;10.18;;;;;;;
72225;SPS30;60130;52.250;5.048;2023-11-22T14:00:00;10.77;;10.31;;;;;;;
72225;SPS30;60130;52.250;5.048;2023-11-22T14:05:00;11.31;;10.71;;;;;;;
72225;SPS30;60130;52.250;5.048;2023-11-22T14:10:00;10.60;;9.75;;;;;;;
72225;SPS30;60130;52.250;5.048;2023-11-22T14:15:00;11.83;;11.32;;;;;;;
72225;SPS30;60130;52.250;5.048;2023-11-22T14:20:00;12.00;;11.37;;;;;;;
72225;SPS30;60130;52.250;5.048;2023-11-22T14:25:00;12.64;;12.02;;;;;;;
72225;SPS30;60130;52.250;5.048;2023-11-22T14:30:00;12.22;;11.37;;;;;;;
72225;SPS30;60130;52.250;5.048;2023-11-22T14:35:00;12.45;;11.48;;;;;;;
72225;SPS30;60130;52.250;5.048;2023-11-22T14:40:00;12.43;;11.50;;;;;;;
72225;SPS30;60130;52.250;5.048;2023-11-22T14:45:00;12.12;;11.58;;;;;;;
72225;SPS30;60130;52.250;5.048;2023-11-22T14:50:00;13.00;;12.21;;;;;;;
72225;SPS30;60130;52.250;5.048;2023-11-22T14:55:00;10.64;;10.12;;;;;;;
72225;SPS30;60130;52.250;5.048;2023-11-22T15:00:00;12.39;;11.50;;;;;;;
72225;SPS30;60130;52.250;5.048;2023-11-22T15:05:01;10.93;;10.36;;;;;;;
72225;SPS30;60130;52.250;5.048;2023-11-22T15:10:00;11.31;;10.62;;;;;;;
72225;SPS30;60130;52.250;5.048;2023-11-22T15:15:00;13.11;;12.30;;;;;;;
72225;SPS30;60130;52.250;5.048;2023-11-22T15:20:00;12.84;;12.12;;;;;;;
72225;SPS30;60130;52.250;5.048;2023-11-22T15:25:00;12.84;;11.58;;;;;;;
72225;SPS30;60130;52.250;5.048;2023-11-22T15:30:00;14.54;;13.20;;;;;;;
72225;SPS30;60130;52.250;5.048;2023-11-22T15:35:00;14.31;;12.82;;;;;;;
72225;SPS30;60130;52.250;5.048;2023-11-22T15:40:00;14.97;;13.65;;;;;;;
72225;SPS30;60130;52.250;5.048;2023-11-22T15:45:00;15.63;;14.16;;;;;;;
72225;SPS30;60130;52.250;5.048;2023-11-22T15:50:00;16.27;;15.30;;;;;;;
72225;SPS30;60130;52.250;5.048;2023-11-22T15:55:00;19.63;;17.19;;;;;;;
72225;SPS30;60130;52.250;5.048;2023-11-22T16:00:00;20.73;;18.69;;;;;;;
72225;SPS30;60130;52.250;5.048;2023-11-22T16:05:00;20.99;;18.58;;;;;;;
72225;SPS30;60130;52.250;5.048;2023-11-22T16:10:00;23.09;;20.39;;;;;;;
72225;SPS30;60130;52.250;5.048;2023-11-22T16:15:00;23.35;;20.13;;;;;;;
72225;SPS30;60130;52.250;5.048;2023-11-22T16:20:00;23.66;;20.52;;;;;;;
72225;SPS30;60130;52.250;5.048;2023-11-22T16:25:00;23.35;;19.77;;;;;;;
72225;SPS30;60130;52.250;5.048;2023-11-22T16:30:00;21.03;;18.88;;;;;;;
72225;SPS30;60130;52.250;5.048;2023-11-22T16:35:00;21.85;;19.04;;;;;;;
72225;SPS30;60130;52.250;5.048;2023-11-22T16:40:00;20.01;;18.09;;;;;;;
72225;SPS30;60130;52.250;5.048;2023-11-22T16:45:00;22.15;;18.88;;;;;;;
72225;SPS30;60130;52.250;5.048;2023-11-22T16:50:00;18.96;;16.93;;;;;;;
72225;SPS30;60130;52.250;5.048;2023-11-22T16:55:00;20.77;;18.30;;;;;;;
72225;SPS30;60130;52.250;5.048;2023-11-22T17:00:00;17.76;;16.57;;;;;;;
72225;SPS30;60130;52.250;5.048;2023-11-22T17:05:00;20.35;;18.15;;;;;;;
72225;SPS30;60130;52.250;5.048;2023-11-22T17:10:00;20.35;;17.89;;;;;;;
72225;SPS30;60130;52.250;5.048;2023-11-22T17:15:00;17.54;;16.16;;;;;;;
72225;SPS30;60130;52.250;5.048;2023-11-22T17:20:00;18.03;;16.57;;;;;;;
72225;SPS30;60130;52.250;5.048;2023-11-22T17:25:00;18.78;;16.61;;;;;;;
72225;SPS30;60130;52.250;5.048;2023-11-22T17:30:00;17.95;;15.87;;;;;;;
72225;SPS30;60130;52.250;5.048;2023-11-22T17:35:00;20.16;;17.44;;;;;;;
72225;SPS30;60130;52.250;5.048;2023-11-22T17:40:00;19.39;;17.37;;;;;;;
72225;SPS30;60130;52.250;5.048;2023-11-22T17:45:00;20.24;;17.75;;;;;;;
72225;SPS30;60130;52.250;5.048;2023-11-22T17:50:00;19.16;;17.06;;;;;;;
72225;SPS30;60130;52.250;5.048;2023-11-22T17:55:00;19.94;;17.49;;;;;;;
72225;SPS30;60130;52.250;5.048;2023-11-22T18:00:00;16.84;;15.05;;;;;;;
72225;SPS30;60130;52.250;5.048;2023-11-22T18:05:00;16.97;;15.81;;;;;;;
72225;SPS30;60130;52.250;5.048;2023-11-22T18:10:00;17.72;;15.90;;;;;;;
72225;SPS30;60130;52.250;5.048;2023-11-22T18:15:00;14.94;;13.69;;;;;;;
72225;SPS30;60130;52.250;5.048;2023-11-22T18:20:00;16.11;;14.47;;;;;;;
72225;SPS30;60130;52.250;5.048;2023-11-22T18:25:00;16.22;;15.08;;;;;;;
72225;SPS30;60130;52.250;5.048;2023-11-22T18:30:00;15.50;;14.18;;;;;;;
72225;SPS30;60130;52.250;5.048;2023-11-22T18:35:00;13.87;;12.86;;;;;;;
72225;SPS30;60130;52.250;5.048;2023-11-22T18:40:00;15.05;;13.39;;;;;;;
72225;SPS30;60130;52.250;5.048;2023-11-22T18:45:00;14.05;;13.07;;;;;;;
72225;SPS30;60130;52.250;5.048;2023-11-22T18:50:00;13.35;;12.39;;;;;;;
72225;SPS30;60130;52.250;5.048;2023-11-22T18:55:00;13.55;;12.51;;;;;;;
72225;SPS30;60130;52.250;5.048;2023-11-22T19:00:00;15.03;;13.56;;;;;;;
72225;SPS30;60130;52.250;5.048;2023-11-22T19:05:00;13.02;;11.82;;;;;;;
72225;SPS30;60130;52.250;5.048;2023-11-22T19:10:04;13.97;;12.70;;;;;;;
72225;SPS30;60130;52.250;5.048;2023-11-22T19:15:02;13.47;;12.58;;;;;;;
72225;SPS30;60130;52.250;5.048;2023-11-22T19:20:00;12.76;;12.26;;;;;;;
72225;SPS30;60130;52.250;5.048;2023-11-22T19:25:00;11.91;;11.06;;;;;;;
72225;SPS30;60130;52.250;5.048;2023-11-22T19:30:00;11.97;;11.17;;;;;;;
72225;SPS30;60130;52.250;5.048;2023-11-22T19:35:00;12.30;;11.40;;;;;;;
72225;SPS30;60130;52.250;5.048;2023-11-22T19:40:00;13.34;;12.14;;;;;;;
72225;SPS30;60130;52.250;5.048;2023-11-22T19:45:00;12.02;;11.40;;;;;;;
72225;SPS30;60130;52.250;5.048;2023-11-22T19:50:00;12.56;;11.38;;;;;;;
72225;SPS30;60130;52.250;5.048;2023-11-22T19:55:00;11.87;;11.29;;;;;;;
72225;SPS30;60130;52.250;5.048;2023-11-22T20:00:00;11.04;;10.33;;;;;;;
72225;SPS30;60130;52.250;5.048;2023-11-22T20:05:00;11.83;;11.11;;;;;;;
72225;SPS30;60130;52.250;5.048;2023-11-22T20:10:00;11.97;;11.04;;;;;;;
72225;SPS30;60130;52.250;5.048;2023-11-22T20:15:00;12.19;;11.40;;;;;;;
72225;SPS30;60130;52.250;5.048;2023-11-22T20:20:00;13.32;;12.19;;;;;;;
72225;SPS30;60130;52.250;5.048;2023-11-22T20:25:00;10.37;;9.52;;;;;;;
72225;SPS30;60130;52.250;5.048;2023-11-22T20:30:00;12.10;;11.16;;;;;;;
72225;SPS30;60130;52.250;5.048;2023-11-22T20:35:00;10.73;;10.04;;;;;;;
72225;SPS30;60130;52.250;5.048;2023-11-22T20:40:00;9.78;;9.41;;;;;;;
72225;SPS30;60130;52.250;5.048;2023-11-22T20:45:00;10.18;;9.82;;;;;;;
72225;SPS30;60130;52.250;5.048;2023-11-22T20:50:00;10.47;;10.12;;;;;;;
72225;SPS30;60130;52.250;5.048;2023-11-22T20:55:00;10.44;;9.79;;;;;;;
72225;SPS30;60130;52.250;5.048;2023-11-22T21:00:00;9.21;;8.91;;;;;;;
72225;SPS30;60130;52.250;5.048;2023-11-22T21:05:00;9.41;;8.86;;;;;;;
72225;SPS30;60130;52.250;5.048;2023-11-22T21:10:00;9.38;;8.96;;;;;;;
72225;SPS30;60130;52.250;5.048;2023-11-22T21:15:00;8.97;;8.67;;;;;;;
72225;SPS30;60130;52.250;5.048;2023-11-22T21:20:00;8.95;;8.70;;;;;;;
72225;SPS30;60130;52.250;5.048;2023-11-22T21:25:00;10.08;;9.68;;;;;;;
72225;SPS30;60130;52.250;5.048;2023-11-22T21:30:00;8.32;;8.07;;;;;;;
72225;SPS30;60130;52.250;5.048;2023-11-22T21:35:01;9.62;;9.31;;;;;;;
72225;SPS30;60130;52.250;5.048;2023-11-22T21:40:00;8.92;;8.70;;;;;;;
72225;SPS30;60130;52.250;5.048;2023-11-22T21:45:00;8.71;;8.51;;;;;;;
72225;SPS30;60130;52.250;5.048;2023-11-22T21:50:00;9.54;;9.31;;;;;;;
72225;SPS30;60130;52.250;5.048;2023-11-22T21:55:00;10.62;;10.32;;;;;;;
72225;SPS30;60130;52.250;5.048;2023-11-22T22:00:00;10.76;;10.17;;;;;;;
72225;SPS30;60130;52.250;5.048;2023-11-22T22:05:00;10.85;;10.53;;;;;;;
72225;SPS30;60130;52.250;5.048;2023-11-22T22:10:00;10.46;;10.09;;;;;;;
72225;SPS30;60130;52.250;5.048;2023-11-22T22:15:00;9.96;;9.60;;;;;;;
72225;SPS30;60130;52.250;5.048;2023-11-22T22:20:00;11.51;;10.89;;;;;;;
72225;SPS30;60130;52.250;5.048;2023-11-22T22:25:00;11.21;;10.68;;;;;;;
72225;SPS30;60130;52.250;5.048;2023-11-22T22:30:00;12.04;;11.41;;;;;;;
72225;SPS30;60130;52.250;5.048;2023-11-22T22:35:04;11.00;;10.62;;;;;;;
72225;SPS30;60130;52.250;5.048;2023-11-22T22:40:00;10.09;;9.87;;;;;;;
72225;SPS30;60130;52.250;5.048;2023-11-22T22:45:00;10.09;;9.81;;;;;;;
72225;SPS30;60130;52.250;5.048;2023-11-22T22:50:00;11.04;;10.84;;;;;;;
72225;SPS30;60130;52.250;5.048;2023-11-22T22:55:00;10.67;;10.15;;;;;;;
72225;SPS30;60130;52.250;5.048;2023-11-22T23:00:00;11.19;;10.44;;;;;;;
72225;SPS30;60130;52.250;5.048;2023-11-22T23:05:00;10.58;;9.96;;;;;;;
72225;SPS30;60130;52.250;5.048;2023-11-22T23:10:00;9.54;;9.21;;;;;;;
72225;SPS30;60130;52.250;5.048;2023-11-22T23:15:00;8.44;;8.18;;;;;;;
72225;SPS30;60130;52.250;5.048;2023-11-22T23:20:00;9.96;;9.49;;;;;;;
72225;SPS30;60130;52.250;5.048;2023-11-22T23:25:00;9.28;;9.02;;;;;;;
72225;SPS30;60130;52.250;5.048;2023-11-22T23:30:00;9.65;;9.22;;;;;;;
72225;SPS30;60130;52.250;5.048;2023-11-22T23:35:00;9.05;;8.74;;;;;;;
72225;SPS30;60130;52.250;5.048;2023-11-22T23:40:00;9.14;;8.76;;;;;;;
72225;SPS30;60130;52.250;5.048;2023-11-22T23:45:00;7.51;;7.41;;;;;;;
72225;SPS30;60130;52.250;5.048;2023-11-22T23:50:00;8.15;;7.93;;;;;;;
72225;SPS30;60130;52.250;5.048;2023-11-22T23:55:00;9.61;;9.09;;;;;;;
